Emerald Coast — WDC9127 — position and weather

sailwx.info

Track history (hours):
 
Tides and Currents Weather Stations Pressure Air Temp Water Temp Dewpoint Dewpoint Depression Visibility Wind Speed Wind Dir Waves Ship Positions

Emerald Coast

Owner: Dann Marine Towing, LC, Chesapeake City, MD. More information available from US FCC via Universal Licensing System and Coast Guard Vessel Documentation Center.

Last reported at 2018-Feb-20 13:43 UTC. Time now 2018-Feb-20 15:20 UTC.
Position N 40°38' W 074°07'.

; draft 3 m.

Type: Tug. MMSI: 367097920.

Date/timePositionNaut miles runAvg speedWind from/ knotsBaromVisibWave heightAir tempDewpointWater temp
2018-Feb-20 13:43N 40°38' W 074°07'0 0.0
2018-Feb-20 13:27N 40°38' W 074°07'0 0.0
2018-Feb-20 12:58N 40°38' W 074°07'0 0.0
2018-Feb-20 11:12N 40°38' W 074°07'0 0.0
2018-Feb-20 10:59N 40°38' W 074°07'0 0.0
2018-Feb-20 10:28N 40°38' W 074°07'0 0.0
2018-Feb-20 10:00N 40°38' W 074°07'0 0.0
2018-Feb-20 09:30N 40°38' W 074°07'0 0.0
2018-Feb-20 08:38N 40°38' W 074°07'0 0.0
2018-Feb-20 08:30N 40°38' W 074°07'0 0.0
2018-Feb-20 05:04N 40°38' W 074°07'0 0.0
2018-Feb-20 04:35N 40°38' W 074°07'1 6.6
2018-Feb-20 04:30N 40°39' W 074°07'1 1.5
2018-Feb-20 03:59N 40°39' W 074°06'1 2.8
2018-Feb-20 03:29N 40°40' W 074°05'0 0.0
2018-Feb-20 03:00N 40°40' W 074°05'0 0.0
2018-Feb-20 02:30N 40°40' W 074°05'0 0.6
2018-Feb-20 02:00N 40°40' W 074°05'3 6.8
2018-Feb-20 01:30N 40°40' W 074°00'0 0.2
2018-Feb-20 01:00N 40°40' W 074°00'0 0.4
2018-Feb-20 00:30N 40°40' W 074°00'0 0.0
2018-Feb-20 00:00N 40°40' W 074°00'0 0.0
2018-Feb-19 23:30N 40°40' W 074°00'0 0.0
2018-Feb-19 23:00N 40°40' W 074°00'2 4.4
2018-Feb-19 22:30N 40°39' W 074°03'3 6.8
2018-Feb-19 22:00N 40°39' W 074°07'0 0.0
2018-Feb-19 21:30N 40°39' W 074°07'0 0.0
2018-Feb-19 21:00N 40°39' W 074°07'0 0.0
2018-Feb-19 20:30N 40°39' W 074°07'0 0.0
2018-Feb-19 20:00N 40°39' W 074°07'0 0.0
2018-Feb-19 19:30N 40°39' W 074°07'0 0.0
2018-Feb-19 18:59N 40°39' W 074°07'0 0.0
2018-Feb-19 18:30N 40°39' W 074°07'0 0.0
2018-Feb-19 18:00N 40°39' W 074°07'0 0.0
2018-Feb-19 17:30N 40°39' W 074°07'0 0.0
2018-Feb-19 16:59N 40°39' W 074°07'0 0.0
2018-Feb-19 16:30N 40°39' W 074°07'0 0.0
2018-Feb-19 16:00N 40°39' W 074°07'0 0.0
2018-Feb-19 15:28N 40°39' W 074°07'0 0.0
2018-Feb-19 15:00N 40°39' W 074°07'0 0.0
2018-Feb-19 14:29N 40°39' W 074°07'0 0.0
2018-Feb-19 14:00N 40°39' W 074°07'0 0.0
2018-Feb-19 13:30N 40°39' W 074°07'0 0.0
2018-Feb-19 13:00N 40°39' W 074°07'0 0.0
2018-Feb-19 12:30N 40°39' W 074°07'0 0.0
2018-Feb-19 11:58N 40°39' W 074°07'0 0.6
2018-Feb-19 11:30N 40°39' W 074°08'3 5.6
2018-Feb-19 11:00N 40°41' W 074°09'0 0.6
2018-Feb-19 10:30N 40°41' W 074°10'0 0.0
2018-Feb-19 10:00N 40°41' W 074°10'0 0.0
2018-Feb-19 09:30N 40°41' W 074°10'0 0.0
2018-Feb-19 09:00N 40°41' W 074°10'0 0.0
2018-Feb-19 08:29N 40°41' W 074°10'1 2.7
2018-Feb-19 08:00N 40°40' W 074°08'2 4.1
2018-Feb-19 07:29N 40°39' W 074°06'4 8.0
2018-Feb-19 07:00N 40°40' W 074°01'1 2.0
2018-Feb-19 06:30N 40°40' W 074°00'0 0.0
2018-Feb-19 06:00N 40°40' W 074°00'0 0.0
2018-Feb-19 05:30N 40°40' W 074°00'0 0.0
2018-Feb-19 05:00N 40°40' W 074°00'0 0.0
2018-Feb-19 04:30N 40°40' W 074°00'0 0.0
2018-Feb-19 04:00N 40°40' W 074°00'0 0.0
2018-Feb-19 03:29N 40°40' W 074°00'0 0.0
2018-Feb-19 02:58N 40°40' W 074°00'0 0.0
2018-Feb-19 02:30N 40°40' W 074°00'0 0.0
2018-Feb-19 02:00N 40°40' W 074°00'0 0.0
2018-Feb-19 01:30N 40°40' W 074°00'0 0.0
2018-Feb-19 01:00N 40°40' W 074°00'0 0.0
2018-Feb-19 00:28N 40°40' W 074°00'0 0.0
2018-Feb-18 23:59N 40°40' W 074°00'0 0.0
2018-Feb-18 23:30N 40°40' W 074°00'0 0.0
2018-Feb-18 23:00N 40°40' W 074°00'0 0.0
2018-Feb-18 22:30N 40°40' W 074°00'0 0.0
2018-Feb-18 22:00N 40°40' W 074°00'0 0.0
2018-Feb-18 21:29N 40°40' W 074°00'0 0.0
2018-Feb-18 20:58N 40°40' W 074°00'0 0.0
2018-Feb-18 20:30N 40°40' W 074°00'0 0.0
2018-Feb-18 20:00N 40°40' W 074°00'0 0.0
2018-Feb-18 19:30N 40°40' W 074°00'0 0.0
2018-Feb-18 18:58N 40°40' W 074°00'0 0.0
2018-Feb-18 18:28N 40°40' W 074°00'0 0.0
2018-Feb-18 18:00N 40°40' W 074°00'0 0.0
2018-Feb-18 17:30N 40°40' W 074°00'0 0.2
2018-Feb-18 17:00N 40°40' W 074°00'0 0.0
2018-Feb-18 16:30N 40°40' W 074°00'0 0.2
2018-Feb-18 16:00N 40°40' W 074°00'0 0.0
2018-Feb-18 15:30N 40°40' W 074°00'0 0.0
2018-Feb-18 15:00N 40°40' W 074°00'0 0.0
2018-Feb-18 14:30N 40°40' W 074°00'0 0.0
2018-Feb-18 14:00N 40°40' W 074°00'0 0.0
2018-Feb-18 13:30N 40°40' W 074°00'2 4.5
2018-Feb-18 13:00N 40°40' W 074°03'2 3.1
2018-Feb-18 12:30N 40°41' W 074°01'1 1.3
2018-Feb-18 12:00N 40°41' W 074°00'1 2.5
2018-Feb-18 11:28N 40°40' W 074°00'0 0.0
2018-Feb-18 11:00N 40°40' W 074°00'0 0.0
2018-Feb-18 10:30N 40°40' W 074°00'0 0.0
2018-Feb-18 10:00N 40°40' W 074°00'0 0.0
2018-Feb-18 09:30N 40°40' W 074°00'0 0.0
2018-Feb-18 09:00N 40°40' W 074°00'0 0.0
2018-Feb-18 08:30N 40°40' W 074°00'0 0.0
2018-Feb-18 08:00N 40°40' W 074°00'0 0.0
2018-Feb-18 07:30N 40°40' W 074°00'0 0.0
2018-Feb-18 07:00N 40°40' W 074°00'0 0.0
2018-Feb-18 06:30N 40°40' W 074°00'0 0.0
2018-Feb-18 06:00N 40°40' W 074°00'0 0.0
2018-Feb-18 05:30N 40°40' W 074°00'0 0.0
2018-Feb-18 05:00N 40°40' W 074°00'0 0.0
2018-Feb-18 04:30N 40°40' W 074°00'0 0.0
2018-Feb-18 04:00N 40°40' W 074°00'0 0.0
2018-Feb-18 03:30N 40°40' W 074°00'0 0.0
2018-Feb-18 03:00N 40°40' W 074°00'0 0.0
2018-Feb-18 02:30N 40°40' W 074°00'0 0.0
2018-Feb-18 02:00N 40°40' W 074°00'0 0.0
2018-Feb-18 01:30N 40°40' W 074°00'0 0.0
2018-Feb-18 01:00N 40°40' W 074°00'0 0.0
2018-Feb-18 00:30N 40°40' W 074°00'0 0.0
2018-Feb-18 00:00N 40°40' W 074°00'0 0.0
2018-Feb-17 23:30N 40°40' W 074°00'0 0.0
2018-Feb-17 23:00N 40°40' W 074°00'0 0.0
2018-Feb-17 22:30N 40°40' W 074°00'0 0.0
2018-Feb-17 22:00N 40°40' W 074°00'0 0.0
2018-Feb-17 21:30N 40°40' W 074°00'0 0.0
2018-Feb-17 21:00N 40°40' W 074°00'0 0.0
2018-Feb-17 20:30N 40°40' W 074°00'0 0.0
2018-Feb-17 20:00N 40°40' W 074°00'0 0.0
2018-Feb-17 19:30N 40°40' W 074°00'0 0.0
2018-Feb-17 19:00N 40°40' W 074°00'1 2.1
2018-Feb-17 18:30N 40°40' W 074°01'2 4.9
2018-Feb-17 18:00N 40°38' W 074°04'0 0.1
2018-Feb-17 17:30N 40°38' W 074°04'0 0.0
2018-Feb-17 17:00N 40°38' W 074°04'0 0.1
2018-Feb-17 16:30N 40°38' W 074°04'0 0.3
2018-Feb-17 16:00N 40°38' W 074°04'0 0.3
2018-Feb-17 15:30N 40°38' W 074°04'0 0.1
2018-Feb-17 15:00N 40°38' W 074°04'0 0.0
2018-Feb-17 14:30N 40°38' W 074°04'0 0.6
2018-Feb-17 14:00N 40°39' W 074°04'1 3.0
2018-Feb-17 13:30N 40°39' W 074°06'2 3.8
2018-Feb-17 13:00N 40°39' W 074°08'2 3.4
2018-Feb-17 12:30N 40°40' W 074°08'1 2.8
2018-Feb-17 12:00N 40°41' W 074°09'0 0.0
2018-Feb-17 11:30N 40°41' W 074°09'0 0.0
2018-Feb-17 10:59N 40°41' W 074°09'0 0.0
2018-Feb-17 10:30N 40°41' W 074°09'0 0.0
2018-Feb-17 10:00N 40°41' W 074°09'0 0.0
2018-Feb-17 09:30N 40°41' W 074°09'0 0.0
2018-Feb-17 09:00N 40°41' W 074°09'0 0.0
2018-Feb-17 08:30N 40°41' W 074°09'0 0.0
2018-Feb-17 07:58N 40°41' W 074°09'0 0.0
2018-Feb-17 07:30N 40°41' W 074°09'1 1.6
2018-Feb-17 07:00N 40°41' W 074°09'0 0.7
2018-Feb-17 06:29N 40°41' W 074°08'1 2.1
2018-Feb-17 06:00N 40°41' W 074°10'0 0.0
2018-Feb-17 05:28N 40°41' W 074°10'0 0.0
2018-Feb-17 05:00N 40°41' W 074°10'0 0.0
2018-Feb-17 04:30N 40°41' W 074°10'0 0.0
2018-Feb-17 04:00N 40°41' W 074°10'0 0.0
2018-Feb-17 03:30N 40°41' W 074°10'0 0.0
2018-Feb-17 03:00N 40°41' W 074°10'0 0.0
2018-Feb-17 02:29N 40°41' W 074°10'0 0.0
2018-Feb-17 02:00N 40°41' W 074°10'0 0.0
2018-Feb-17 01:30N 40°41' W 074°10'0 0.0
2018-Feb-17 00:59N 40°41' W 074°10'0 0.0
2018-Feb-17 00:30N 40°41' W 074°10'0 0.0
2018-Feb-17 00:00N 40°41' W 074°10'0 0.0
2018-Feb-16 23:29N 40°41' W 074°10'0 0.0
2018-Feb-16 23:00N 40°41' W 074°10'0 0.0
2018-Feb-16 22:30N 40°41' W 074°10'0 0.0
2018-Feb-16 22:00N 40°41' W 074°10'0 0.0
2018-Feb-16 21:30N 40°41' W 074°10'0 0.0
2018-Feb-16 21:00N 40°41' W 074°10'0 0.0
2018-Feb-16 20:30N 40°41' W 074°10'0 0.0
2018-Feb-16 20:00N 40°41' W 074°10'2 3.3
2018-Feb-16 19:30N 40°40' W 074°09'1 1.4
2018-Feb-16 19:00N 40°39' W 074°09'2 4.1
2018-Feb-16 18:30N 40°39' W 074°06'0 0.3
2018-Feb-16 18:00N 40°39' W 074°06'2 4.5
2018-Feb-16 17:30N 40°39' W 074°03'3 5.2
2018-Feb-16 17:00N 40°40' W 074°00'0 0.0
2018-Feb-16 16:30N 40°40' W 074°00'0 0.0
2018-Feb-16 16:00N 40°40' W 074°00'0 0.0
2018-Feb-16 15:30N 40°40' W 074°00'0 0.0
2018-Feb-16 15:00N 40°40' W 074°00'0 0.0
2018-Feb-16 14:30N 40°40' W 074°00'2 3.7
2018-Feb-16 14:00N 40°39' W 074°02'4 7.2
2018-Feb-16 13:30N 40°39' W 074°07'1 1.8
2018-Feb-16 13:00N 40°39' W 074°06'2 4.0
2018-Feb-16 12:30N 40°38' W 074°08'3 5.7
2018-Feb-16 12:00N 40°41' W 074°10'0 0.0
2018-Feb-16 11:29N 40°41' W 074°10'0 0.0
2018-Feb-16 11:00N 40°41' W 074°10'0 0.0
2018-Feb-16 10:30N 40°41' W 074°10'0 0.0
2018-Feb-16 09:59N 40°41' W 074°10'1 2.9
2018-Feb-16 09:30N 40°40' W 074°09'1 2.0
2018-Feb-16 09:00N 40°41' W 074°09'1 1.7
2018-Feb-16 08:30N 40°40' W 074°08'0 0.4
2018-Feb-16 08:00N 40°40' W 074°08'1 2.9
2018-Feb-16 07:30N 40°39' W 074°08'3 6.2
2018-Feb-16 07:00N 40°39' W 074°05'2 3.3
2018-Feb-16 06:30N 40°40' W 074°03'0 0.1
2018-Feb-16 06:00N 40°40' W 074°03'2 4.4
2018-Feb-16 05:30N 40°40' W 074°00'0 0.2
2018-Feb-16 05:00N 40°40' W 074°00'0 0.0
2018-Feb-16 04:30N 40°40' W 074°00'0 0.0
2018-Feb-16 04:00N 40°40' W 074°00'0 0.0
2018-Feb-16 03:30N 40°40' W 074°00'0 0.0
2018-Feb-16 03:00N 40°40' W 074°00'0 0.0
2018-Feb-16 02:30N 40°40' W 074°00'0 0.0
2018-Feb-16 02:00N 40°40' W 074°00'0 0.0
2018-Feb-16 01:30N 40°40' W 074°00'0 0.0
2018-Feb-16 01:00N 40°40' W 074°00'0 0.0
2018-Feb-16 00:30N 40°40' W 074°00'0 0.0
2018-Feb-16 00:00N 40°40' W 074°00'0 0.0
2018-Feb-15 23:30N 40°40' W 074°00'0 0.0
2018-Feb-15 23:00N 40°40' W 074°00'0 0.2
2018-Feb-15 22:30N 40°40' W 074°00'0 0.0
2018-Feb-15 22:00N 40°40' W 074°00'0 0.6
2018-Feb-15 21:30N 40°40' W 074°00'0 0.0
2018-Feb-15 21:00N 40°40' W 074°00'0 0.0
2018-Feb-15 20:30N 40°40' W 074°00'0 0.6
2018-Feb-15 20:00N 40°40' W 074°00'4 8.5
2018-Feb-15 19:30N 40°39' W 074°06'0 0.4
2018-Feb-15 19:00N 40°39' W 074°06'2 4.4
2018-Feb-15 18:30N 40°40' W 074°03'0 0.9
2018-Feb-15 18:00N 40°40' W 074°04'3 6.9
2018-Feb-15 17:30N 40°39' W 074°08'1 2.8
2018-Feb-15 16:59N 40°40' W 074°09'1 2.7
2018-Feb-15 16:30N 40°39' W 074°08'3 7.1
2018-Feb-15 16:00N 40°40' W 074°04'3 6.4
2018-Feb-15 15:30N 40°41' W 074°00'2 3.4
2018-Feb-15 15:00N 40°40' W 074°01'1 1.2
2018-Feb-15 14:30N 40°40' W 074°00'4 7.1
2018-Feb-15 14:00N 40°39' W 074°05'3 6.2
2018-Feb-15 13:30N 40°40' W 074°09'0 0.1
2018-Feb-15 13:00N 40°40' W 074°09'1 2.5
2018-Feb-15 12:30N 40°39' W 074°09'3 5.6
2018-Feb-15 12:00N 40°39' W 074°05'3 5.6
2018-Feb-15 11:30N 40°39' W 074°02'1 2.4
2018-Feb-15 11:00N 40°40' W 074°00'0 0.1
2018-Feb-15 10:30N 40°40' W 074°00'0 0.0
2018-Feb-15 10:00N 40°40' W 074°00'0 0.0
2018-Feb-15 09:30N 40°40' W 074°00'0 0.0
2018-Feb-15 09:00N 40°40' W 074°00'0 0.0
2018-Feb-15 08:30N 40°40' W 074°00'0 0.0
2018-Feb-15 08:00N 40°40' W 074°00'0 0.0
2018-Feb-15 07:30N 40°40' W 074°00'0 0.0
2018-Feb-15 07:00N 40°40' W 074°00'0 0.0
2018-Feb-15 06:30N 40°40' W 074°00'2 4.7
2018-Feb-15 06:00N 40°39' W 074°03'5 8.9
2018-Feb-15 05:28N 40°39' W 074°10'2 4.4
2018-Feb-15 05:00N 40°38' W 074°12'2 3.8
2018-Feb-15 04:30N 40°39' W 074°10'3 5.1
2018-Feb-15 04:00N 40°39' W 074°07'1 2.2
2018-Feb-15 03:30N 40°39' W 074°05'0 0.0
2018-Feb-15 03:00N 40°39' W 074°05'0 0.0
2018-Feb-15 02:30N 40°39' W 074°05'1 1.8
2018-Feb-15 02:00N 40°40' W 074°04'1 1.4
2018-Feb-15 01:30N 40°40' W 074°05'0 0.0
2018-Feb-15 01:00N 40°40' W 074°05'0 0.0
2018-Feb-15 00:30N 40°40' W 074°05'0 0.0
2018-Feb-15 00:00N 40°40' W 074°05'0 0.0
2018-Feb-14 23:30N 40°40' W 074°05'0 0.0
2018-Feb-14 23:00N 40°40' W 074°05'0 0.0
2018-Feb-14 22:30N 40°40' W 074°05'0 0.0
2018-Feb-14 22:00N 40°40' W 074°05'0 0.0
2018-Feb-14 21:30N 40°40' W 074°05'0 0.0
2018-Feb-14 21:00N 40°40' W 074°05'0 0.0
2018-Feb-14 20:30N 40°40' W 074°05'0 0.0
2018-Feb-14 19:59N 40°40' W 074°05'0 0.0
2018-Feb-14 19:30N 40°40' W 074°05'1 1.9
2018-Feb-14 19:00N 40°39' W 074°05'1 2.6
2018-Feb-14 18:30N 40°39' W 074°04'1 2.0
2018-Feb-14 18:00N 40°40' W 074°04'1 1.8
2018-Feb-14 17:30N 40°40' W 074°05'0 0.0
2018-Feb-14 17:00N 40°40' W 074°05'0 0.0
2018-Feb-14 16:30N 40°40' W 074°05'0 0.0
2018-Feb-14 16:00N 40°40' W 074°05'0 0.0
2018-Feb-14 15:30N 40°40' W 074°05'0 0.0
2018-Feb-14 15:00N 40°40' W 074°05'0 0.0
2018-Feb-14 14:30N 40°40' W 074°05'0 0.0
2018-Feb-14 14:00N 40°40' W 074°05'0 0.0
2018-Feb-14 13:30N 40°40' W 074°05'0 0.0
2018-Feb-14 13:00N 40°40' W 074°05'0 0.0
2018-Feb-14 12:30N 40°40' W 074°05'0 0.0
2018-Feb-14 12:00N 40°40' W 074°05'0 0.0
2018-Feb-14 11:30N 40°40' W 074°05'0 0.0
2018-Feb-14 11:00N 40°40' W 074°05'0 0.0
2018-Feb-14 10:30N 40°40' W 074°05'0 0.0
2018-Feb-14 10:00N 40°40' W 074°05'0 0.0
2018-Feb-14 09:30N 40°40' W 074°05'0 0.0
2018-Feb-14 09:00N 40°40' W 074°05'0 0.0
2018-Feb-14 08:30N 40°40' W 074°05'0 0.0
2018-Feb-14 08:00N 40°40' W 074°05'0 0.0
2018-Feb-14 07:30N 40°40' W 074°05'0 0.0
2018-Feb-14 07:00N 40°40' W 074°05'0 0.6
2018-Feb-14 06:30N 40°40' W 074°05'2 3.9
2018-Feb-14 06:00N 40°39' W 074°07'0 0.6
2018-Feb-14 05:29N 40°39' W 074°07'0 0.0
2018-Feb-14 04:59N 40°39' W 074°07'0 0.0
2018-Feb-14 04:30N 40°39' W 074°07'0 0.0
2018-Feb-14 03:58N 40°39' W 074°07'0 0.0
2018-Feb-14 03:30N 40°39' W 074°07'0 0.0
2018-Feb-14 03:00N 40°39' W 074°07'0 0.0
2018-Feb-14 02:30N 40°39' W 074°07'0 0.0
2018-Feb-14 02:00N 40°39' W 074°07'0 0.0
2018-Feb-14 01:30N 40°39' W 074°07'0 0.0
2018-Feb-14 01:00N 40°39' W 074°07'0 0.0
2018-Feb-14 00:30N 40°39' W 074°07'0 0.0
2018-Feb-13 23:59N 40°39' W 074°07'0 0.0
2018-Feb-13 23:27N 40°39' W 074°07'0 0.0
2018-Feb-13 23:00N 40°39' W 074°07'0 0.0
2018-Feb-13 22:30N 40°39' W 074°07'0 0.0
2018-Feb-13 22:00N 40°39' W 074°07'0 0.0
2018-Feb-13 21:30N 40°39' W 074°07'0 0.0
2018-Feb-13 21:00N 40°39' W 074°07'0 0.0
2018-Feb-13 20:30N 40°39' W 074°07'0 0.0
2018-Feb-13 20:00N 40°39' W 074°07'0 0.0
2018-Feb-13 19:30N 40°39' W 074°07'0 0.0
2018-Feb-13 19:00N 40°39' W 074°07'0 0.0
2018-Feb-13 18:28N 40°39' W 074°07'0 0.0
2018-Feb-13 18:00N 40°39' W 074°07'0 0.0
2018-Feb-13 17:30N 40°39' W 074°07'0 0.0
2018-Feb-13 17:00N 40°39' W 074°07'2 4.3
2018-Feb-13 16:30N 40°39' W 074°04'3 6.3
2018-Feb-13 16:00N 40°40' W 074°00'0 0.4
2018-Feb-13 15:30N 40°40' W 074°00'4 7.2
2018-Feb-13 15:00N 40°43' W 074°01'3 5.2
2018-Feb-13 14:29N 40°46' W 074°00'0 0.1
2018-Feb-13 14:00N 40°46' W 074°00'0 0.0
2018-Feb-13 13:30N 40°46' W 074°00'1 1.3
2018-Feb-13 13:00N 40°46' W 074°01'4 7.2
2018-Feb-13 12:30N 40°42' W 074°02'2 4.6
2018-Feb-13 12:00N 40°40' W 074°00'0 0.0
2018-Feb-13 11:30N 40°40' W 074°00'0 0.0
2018-Feb-13 11:00N 40°40' W 074°00'0 0.0
2018-Feb-13 10:30N 40°40' W 074°00'0 0.0
2018-Feb-13 10:00N 40°40' W 074°00'0 0.0
2018-Feb-13 09:30N 40°40' W 074°00'0 0.0
2018-Feb-13 09:00N 40°40' W 074°00'0 0.0
2018-Feb-13 08:30N 40°40' W 074°00'0 0.0
2018-Feb-13 08:00N 40°40' W 074°00'0 0.0
2018-Feb-13 07:30N 40°40' W 074°00'0 0.0
2018-Feb-13 07:00N 40°40' W 074°00'0 0.0
2018-Feb-13 06:30N 40°40' W 074°00'0 0.0
2018-Feb-13 06:00N 40°40' W 074°00'0 0.0
2018-Feb-13 05:30N 40°40' W 074°00'0 0.0
2018-Feb-13 05:00N 40°40' W 074°00'0 0.0
2018-Feb-13 04:31N 40°40' W 074°00'0 0.0
2018-Feb-13 04:00N 40°40' W 074°00'0 0.0
2018-Feb-13 03:30N 40°40' W 074°00'0 0.7
2018-Feb-13 03:00N 40°40' W 074°00'0 0.0
2018-Feb-13 02:30N 40°40' W 074°00'0 0.0
2018-Feb-13 02:00N 40°40' W 074°00'0 0.0
2018-Feb-13 01:30N 40°40' W 074°00'0 0.0
2018-Feb-13 01:00N 40°40' W 074°00'0 0.0
2018-Feb-13 00:30N 40°40' W 074°00'2 3.8
2018-Feb-13 00:00N 40°42' W 074°01'4 8.5
2018-Feb-12 23:30N 40°46' W 074°00'4 8.4
2018-Feb-12 23:00N 40°50' W 073°58'4 8.6
2018-Feb-12 22:30N 40°54' W 073°56'2 3.4
2018-Feb-12 21:54N 40°56' W 073°54'0 0.1
2018-Feb-12 21:29N 40°56' W 073°54'2 3.4
2018-Feb-12 21:00N 40°54' W 073°55'4 7.1
2018-Feb-12 20:30N 40°51' W 073°57'3 6.5
2018-Feb-12 20:00N 40°48' W 073°59'3 6.0
2018-Feb-12 19:30N 40°45' W 074°01'3 5.9
2018-Feb-12 19:00N 40°42' W 074°01'3 5.3
2018-Feb-12 18:30N 40°40' W 074°00'0 0.7
2018-Feb-12 18:00N 40°40' W 074°00'0 0.0
2018-Feb-12 17:30N 40°40' W 074°00'0 0.0
2018-Feb-12 17:00N 40°40' W 074°00'0 0.0
2018-Feb-12 16:30N 40°40' W 074°00'0 0.0
2018-Feb-12 16:00N 40°40' W 074°00'0 0.0
2018-Feb-12 15:30N 40°40' W 074°00'0 0.0
2018-Feb-12 15:00N 40°40' W 074°00'0 0.0
2018-Feb-12 14:30N 40°40' W 074°00'0 0.0
2018-Feb-12 14:00N 40°40' W 074°00'0 0.0
2018-Feb-12 13:30N 40°40' W 074°00'0 0.0
2018-Feb-12 13:00N 40°40' W 074°00'0 0.0
2018-Feb-12 12:30N 40°40' W 074°00'0 0.0
2018-Feb-12 12:00N 40°40' W 074°00'0 0.0
2018-Feb-12 11:30N 40°40' W 074°00'0 0.0
2018-Feb-12 11:00N 40°40' W 074°00'0 0.0
2018-Feb-12 10:30N 40°40' W 074°00'0 0.0
2018-Feb-12 10:00N 40°40' W 074°00'0 0.0
2018-Feb-12 09:30N 40°40' W 074°00'0 0.0
2018-Feb-12 09:00N 40°40' W 074°00'0 0.0
2018-Feb-12 08:30N 40°40' W 074°00'0 0.0
2018-Feb-12 08:00N 40°40' W 074°00'0 0.0
2018-Feb-12 07:30N 40°40' W 074°00'0 0.0
2018-Feb-12 07:00N 40°40' W 074°00'0 0.0
2018-Feb-12 06:30N 40°40' W 074°00'0 0.0
2018-Feb-12 06:00N 40°40' W 074°00'0 0.0
2018-Feb-12 05:30N 40°40' W 074°00'0 0.0
2018-Feb-12 05:00N 40°40' W 074°00'0 0.0
2018-Feb-12 04:30N 40°40' W 074°00'0 0.0
2018-Feb-12 04:00N 40°40' W 074°00'0 0.0
2018-Feb-12 03:29N 40°40' W 074°00'0 0.0
2018-Feb-12 03:00N 40°40' W 074°00'0 0.0
2018-Feb-12 02:30N 40°40' W 074°00'0 0.0
2018-Feb-12 02:00N 40°40' W 074°00'0 0.0
2018-Feb-12 01:30N 40°40' W 074°00'0 0.0
2018-Feb-12 01:00N 40°40' W 074°00'0 0.0
2018-Feb-12 00:30N 40°40' W 074°00'0 0.0
2018-Feb-12 00:00N 40°40' W 074°00'0 0.0
2018-Feb-11 23:30N 40°40' W 074°00'0 0.0
2018-Feb-11 23:00N 40°40' W 074°00'0 0.0
2018-Feb-11 22:30N 40°40' W 074°00'0 0.0
2018-Feb-11 22:00N 40°40' W 074°00'0 0.0
2018-Feb-11 21:30N 40°40' W 074°00'0 0.0
2018-Feb-11 21:00N 40°40' W 074°00'0 0.0
2018-Feb-11 20:30N 40°40' W 074°00'0 0.0
2018-Feb-11 20:00N 40°40' W 074°00'0 0.0
2018-Feb-11 19:30N 40°40' W 074°00'0 0.0
2018-Feb-11 19:00N 40°40' W 074°00'1 1.8
2018-Feb-11 18:30N 40°40' W 074°01'4 8.2
2018-Feb-11 18:00N 40°39' W 074°06'0 0.6
2018-Feb-11 17:30N 40°39' W 074°07'2 3.6
2018-Feb-11 17:00N 40°39' W 074°04'2 4.4
2018-Feb-11 16:30N 40°39' W 074°02'1 2.4
2018-Feb-11 16:00N 40°40' W 074°00'0 0.6
2018-Feb-11 15:30N 40°40' W 074°00'0 0.0
2018-Feb-11 15:00N 40°40' W 074°00'0 0.0
2018-Feb-11 14:30N 40°40' W 074°00'0 0.0
2018-Feb-11 14:00N 40°40' W 074°00'0 0.0
2018-Feb-11 13:30N 40°40' W 074°00'0 0.0
2018-Feb-11 13:00N 40°40' W 074°00'0 0.0
2018-Feb-11 12:30N 40°40' W 074°00'0 0.0
2018-Feb-11 12:00N 40°40' W 074°00'0 0.0
2018-Feb-11 11:30N 40°40' W 074°00'0 0.0
2018-Feb-11 11:00N 40°40' W 074°00'0 0.0
2018-Feb-11 10:30N 40°40' W 074°00'0 0.0
2018-Feb-11 10:00N 40°40' W 074°00'0 0.0
2018-Feb-11 09:30N 40°40' W 074°00'0 0.0
2018-Feb-11 09:00N 40°40' W 074°00'0 0.0
2018-Feb-11 08:30N 40°40' W 074°00'0 0.0
2018-Feb-11 08:00N 40°40' W 074°00'0 0.0
2018-Feb-11 07:30N 40°40' W 074°00'0 0.0
2018-Feb-11 07:00N 40°40' W 074°00'0 0.0
2018-Feb-11 06:30N 40°40' W 074°00'0 0.0
2018-Feb-11 06:00N 40°40' W 074°00'0 0.0
2018-Feb-11 05:30N 40°40' W 074°00'0 0.0
2018-Feb-11 05:00N 40°40' W 074°00'0 0.0
2018-Feb-11 04:30N 40°40' W 074°00'0 0.0
2018-Feb-11 04:00N 40°40' W 074°00'0 0.0
2018-Feb-11 03:30N 40°40' W 074°00'0 0.0
2018-Feb-11 03:00N 40°40' W 074°00'0 0.0
2018-Feb-11 02:30N 40°40' W 074°00'0 0.0
2018-Feb-11 02:00N 40°40' W 074°00'0 0.0
2018-Feb-11 01:30N 40°40' W 074°00'0 0.0
2018-Feb-11 01:00N 40°40' W 074°00'0 0.0
2018-Feb-11 00:30N 40°40' W 074°00'0 0.7
2018-Feb-11 00:00N 40°40' W 074°00'0 0.0
2018-Feb-10 23:30N 40°40' W 074°00'0 0.5
2018-Feb-10 23:00N 40°40' W 074°00'0 0.4
2018-Feb-10 22:30N 40°40' W 074°00'0 0.0
2018-Feb-10 22:00N 40°40' W 074°00'0 0.0
2018-Feb-10 21:30N 40°40' W 074°00'0 0.0
2018-Feb-10 20:59N 40°40' W 074°00'0 0.0
2018-Feb-10 20:30N 40°40' W 074°00'0 0.0
2018-Feb-10 20:00N 40°40' W 074°00'0 0.0
2018-Feb-10 19:30N 40°40' W 074°00'0 0.0
2018-Feb-10 19:00N 40°40' W 074°00'0 0.0
2018-Feb-10 18:30N 40°40' W 074°00'0 0.0
2018-Feb-10 18:00N 40°40' W 074°00'0 0.0
2018-Feb-10 17:30N 40°40' W 074°00'0 0.3
2018-Feb-10 17:00N 40°40' W 074°00'0 0.0
2018-Feb-10 16:30N 40°40' W 074°00'0 0.0
2018-Feb-10 16:00N 40°40' W 074°00'0 0.0
2018-Feb-10 15:30N 40°40' W 074°00'0 0.0
2018-Feb-10 15:00N 40°40' W 074°00'0 0.0
2018-Feb-10 14:30N 40°40' W 074°00'0 0.3
2018-Feb-10 14:00N 40°40' W 074°00'  
Track history (hours):
 
Tides and Currents Weather Stations Pressure Air Temp Water Temp Dewpoint Dewpoint Depression Visibility Wind Speed Wind Dir Waves Ship Positions

Emerald Coast

Owner: Dann Marine Towing, LC, Chesapeake City, MD. More information available from US FCC via Universal Licensing System and Coast Guard Vessel Documentation Center.

Last reported at 2018-Feb-20 13:43 UTC. Time now 2018-Feb-20 15:20 UTC.
Position N 40°38' W 074°07'.

; draft 3 m.

Type: Tug. MMSI: 367097920.

Date/timePositionNaut miles runAvg speedWind from/ knotsBaromVisibWave heightAir tempDewpointWater temp
2018-Feb-20 13:43N 40°38' W 074°07'0 0.0
2018-Feb-20 13:27N 40°38' W 074°07'0 0.0
2018-Feb-20 12:58N 40°38' W 074°07'0 0.0
2018-Feb-20 11:12N 40°38' W 074°07'0 0.0
2018-Feb-20 10:59N 40°38' W 074°07'0 0.0
2018-Feb-20 10:28N 40°38' W 074°07'0 0.0
2018-Feb-20 10:00N 40°38' W 074°07'0 0.0
2018-Feb-20 09:30N 40°38' W 074°07'0 0.0
2018-Feb-20 08:38N 40°38' W 074°07'0 0.0
2018-Feb-20 08:30N 40°38' W 074°07'0 0.0
2018-Feb-20 05:04N 40°38' W 074°07'0 0.0
2018-Feb-20 04:35N 40°38' W 074°07'1 6.6
2018-Feb-20 04:30N 40°39' W 074°07'1 1.5
2018-Feb-20 03:59N 40°39' W 074°06'1 2.8
2018-Feb-20 03:29N 40°40' W 074°05'0 0.0
2018-Feb-20 03:00N 40°40' W 074°05'0 0.0
2018-Feb-20 02:30N 40°40' W 074°05'0 0.6
2018-Feb-20 02:00N 40°40' W 074°05'3 6.8
2018-Feb-20 01:30N 40°40' W 074°00'0 0.2
2018-Feb-20 01:00N 40°40' W 074°00'0 0.4
2018-Feb-20 00:30N 40°40' W 074°00'0 0.0
2018-Feb-20 00:00N 40°40' W 074°00'0 0.0
2018-Feb-19 23:30N 40°40' W 074°00'0 0.0
2018-Feb-19 23:00N 40°40' W 074°00'2 4.4
2018-Feb-19 22:30N 40°39' W 074°03'3 6.8
2018-Feb-19 22:00N 40°39' W 074°07'0 0.0
2018-Feb-19 21:30N 40°39' W 074°07'0 0.0
2018-Feb-19 21:00N 40°39' W 074°07'0 0.0
2018-Feb-19 20:30N 40°39' W 074°07'0 0.0
2018-Feb-19 20:00N 40°39' W 074°07'0 0.0
2018-Feb-19 19:30N 40°39' W 074°07'0 0.0
2018-Feb-19 18:59N 40°39' W 074°07'0 0.0
2018-Feb-19 18:30N 40°39' W 074°07'0 0.0
2018-Feb-19 18:00N 40°39' W 074°07'0 0.0
2018-Feb-19 17:30N 40°39' W 074°07'0 0.0
2018-Feb-19 16:59N 40°39' W 074°07'0 0.0
2018-Feb-19 16:30N 40°39' W 074°07'0 0.0
2018-Feb-19 16:00N 40°39' W 074°07'0 0.0
2018-Feb-19 15:28N 40°39' W 074°07'0 0.0
2018-Feb-19 15:00N 40°39' W 074°07'0 0.0
2018-Feb-19 14:29N 40°39' W 074°07'0 0.0
2018-Feb-19 14:00N 40°39' W 074°07'0 0.0
2018-Feb-19 13:30N 40°39' W 074°07'0 0.0
2018-Feb-19 13:00N 40°39' W 074°07'0 0.0
2018-Feb-19 12:30N 40°39' W 074°07'0 0.0
2018-Feb-19 11:58N 40°39' W 074°07'0 0.6
2018-Feb-19 11:30N 40°39' W 074°08'3 5.6
2018-Feb-19 11:00N 40°41' W 074°09'0 0.6
2018-Feb-19 10:30N 40°41' W 074°10'0 0.0
2018-Feb-19 10:00N 40°41' W 074°10'0 0.0
2018-Feb-19 09:30N 40°41' W 074°10'0 0.0
2018-Feb-19 09:00N 40°41' W 074°10'0 0.0
2018-Feb-19 08:29N 40°41' W 074°10'1 2.7
2018-Feb-19 08:00N 40°40' W 074°08'2 4.1
2018-Feb-19 07:29N 40°39' W 074°06'4 8.0
2018-Feb-19 07:00N 40°40' W 074°01'1 2.0
2018-Feb-19 06:30N 40°40' W 074°00'0 0.0
2018-Feb-19 06:00N 40°40' W 074°00'0 0.0
2018-Feb-19 05:30N 40°40' W 074°00'0 0.0
2018-Feb-19 05:00N 40°40' W 074°00'0 0.0
2018-Feb-19 04:30N 40°40' W 074°00'0 0.0
2018-Feb-19 04:00N 40°40' W 074°00'0 0.0
2018-Feb-19 03:29N 40°40' W 074°00'0 0.0
2018-Feb-19 02:58N 40°40' W 074°00'0 0.0
2018-Feb-19 02:30N 40°40' W 074°00'0 0.0
2018-Feb-19 02:00N 40°40' W 074°00'0 0.0
2018-Feb-19 01:30N 40°40' W 074°00'0 0.0
2018-Feb-19 01:00N 40°40' W 074°00'0 0.0
2018-Feb-19 00:28N 40°40' W 074°00'0 0.0
2018-Feb-18 23:59N 40°40' W 074°00'0 0.0
2018-Feb-18 23:30N 40°40' W 074°00'0 0.0
2018-Feb-18 23:00N 40°40' W 074°00'0 0.0
2018-Feb-18 22:30N 40°40' W 074°00'0 0.0
2018-Feb-18 22:00N 40°40' W 074°00'0 0.0
2018-Feb-18 21:29N 40°40' W 074°00'0 0.0
2018-Feb-18 20:58N 40°40' W 074°00'0 0.0
2018-Feb-18 20:30N 40°40' W 074°00'0 0.0
2018-Feb-18 20:00N 40°40' W 074°00'0 0.0
2018-Feb-18 19:30N 40°40' W 074°00'0 0.0
2018-Feb-18 18:58N 40°40' W 074°00'0 0.0
2018-Feb-18 18:28N 40°40' W 074°00'0 0.0
2018-Feb-18 18:00N 40°40' W 074°00'0 0.0
2018-Feb-18 17:30N 40°40' W 074°00'0 0.2
2018-Feb-18 17:00N 40°40' W 074°00'0 0.0
2018-Feb-18 16:30N 40°40' W 074°00'0 0.2
2018-Feb-18 16:00N 40°40' W 074°00'0 0.0
2018-Feb-18 15:30N 40°40' W 074°00'0 0.0
2018-Feb-18 15:00N 40°40' W 074°00'0 0.0
2018-Feb-18 14:30N 40°40' W 074°00'0 0.0
2018-Feb-18 14:00N 40°40' W 074°00'0 0.0
2018-Feb-18 13:30N 40°40' W 074°00'2 4.5
2018-Feb-18 13:00N 40°40' W 074°03'2 3.1
2018-Feb-18 12:30N 40°41' W 074°01'1 1.3
2018-Feb-18 12:00N 40°41' W 074°00'1 2.5
2018-Feb-18 11:28N 40°40' W 074°00'0 0.0
2018-Feb-18 11:00N 40°40' W 074°00'0 0.0
2018-Feb-18 10:30N 40°40' W 074°00'0 0.0
2018-Feb-18 10:00N 40°40' W 074°00'0 0.0
2018-Feb-18 09:30N 40°40' W 074°00'0 0.0
2018-Feb-18 09:00N 40°40' W 074°00'0 0.0
2018-Feb-18 08:30N 40°40' W 074°00'0 0.0
2018-Feb-18 08:00N 40°40' W 074°00'0 0.0
2018-Feb-18 07:30N 40°40' W 074°00'0 0.0
2018-Feb-18 07:00N 40°40' W 074°00'0 0.0
2018-Feb-18 06:30N 40°40' W 074°00'0 0.0
2018-Feb-18 06:00N 40°40' W 074°00'0 0.0
2018-Feb-18 05:30N 40°40' W 074°00'0 0.0
2018-Feb-18 05:00N 40°40' W 074°00'0 0.0
2018-Feb-18 04:30N 40°40' W 074°00'0 0.0
2018-Feb-18 04:00N 40°40' W 074°00'0 0.0
2018-Feb-18 03:30N 40°40' W 074°00'0 0.0
2018-Feb-18 03:00N 40°40' W 074°00'0 0.0
2018-Feb-18 02:30N 40°40' W 074°00'0 0.0
2018-Feb-18 02:00N 40°40' W 074°00'0 0.0
2018-Feb-18 01:30N 40°40' W 074°00'0 0.0
2018-Feb-18 01:00N 40°40' W 074°00'0 0.0
2018-Feb-18 00:30N 40°40' W 074°00'0 0.0
2018-Feb-18 00:00N 40°40' W 074°00'0 0.0
2018-Feb-17 23:30N 40°40' W 074°00'0 0.0
2018-Feb-17 23:00N 40°40' W 074°00'0 0.0
2018-Feb-17 22:30N 40°40' W 074°00'0 0.0
2018-Feb-17 22:00N 40°40' W 074°00'0 0.0
2018-Feb-17 21:30N 40°40' W 074°00'0 0.0
2018-Feb-17 21:00N 40°40' W 074°00'0 0.0
2018-Feb-17 20:30N 40°40' W 074°00'0 0.0
2018-Feb-17 20:00N 40°40' W 074°00'0 0.0
2018-Feb-17 19:30N 40°40' W 074°00'0 0.0
2018-Feb-17 19:00N 40°40' W 074°00'1 2.1
2018-Feb-17 18:30N 40°40' W 074°01'2 4.9
2018-Feb-17 18:00N 40°38' W 074°04'0 0.1
2018-Feb-17 17:30N 40°38' W 074°04'0 0.0
2018-Feb-17 17:00N 40°38' W 074°04'0 0.1
2018-Feb-17 16:30N 40°38' W 074°04'0 0.3
2018-Feb-17 16:00N 40°38' W 074°04'0 0.3
2018-Feb-17 15:30N 40°38' W 074°04'0 0.1
2018-Feb-17 15:00N 40°38' W 074°04'0 0.0
2018-Feb-17 14:30N 40°38' W 074°04'0 0.6
2018-Feb-17 14:00N 40°39' W 074°04'1 3.0
2018-Feb-17 13:30N 40°39' W 074°06'2 3.8
2018-Feb-17 13:00N 40°39' W 074°08'2 3.4
2018-Feb-17 12:30N 40°40' W 074°08'1 2.8
2018-Feb-17 12:00N 40°41' W 074°09'0 0.0
2018-Feb-17 11:30N 40°41' W 074°09'0 0.0
2018-Feb-17 10:59N 40°41' W 074°09'0 0.0
2018-Feb-17 10:30N 40°41' W 074°09'0 0.0
2018-Feb-17 10:00N 40°41' W 074°09'0 0.0
2018-Feb-17 09:30N 40°41' W 074°09'0 0.0
2018-Feb-17 09:00N 40°41' W 074°09'0 0.0
2018-Feb-17 08:30N 40°41' W 074°09'0 0.0
2018-Feb-17 07:58N 40°41' W 074°09'0 0.0
2018-Feb-17 07:30N 40°41' W 074°09'1 1.6
2018-Feb-17 07:00N 40°41' W 074°09'0 0.7
2018-Feb-17 06:29N 40°41' W 074°08'1 2.1
2018-Feb-17 06:00N 40°41' W 074°10'0 0.0
2018-Feb-17 05:28N 40°41' W 074°10'0 0.0
2018-Feb-17 05:00N 40°41' W 074°10'0 0.0
2018-Feb-17 04:30N 40°41' W 074°10'0 0.0
2018-Feb-17 04:00N 40°41' W 074°10'0 0.0
2018-Feb-17 03:30N 40°41' W 074°10'0 0.0
2018-Feb-17 03:00N 40°41' W 074°10'0 0.0
2018-Feb-17 02:29N 40°41' W 074°10'0 0.0
2018-Feb-17 02:00N 40°41' W 074°10'0 0.0
2018-Feb-17 01:30N 40°41' W 074°10'0 0.0
2018-Feb-17 00:59N 40°41' W 074°10'0 0.0
2018-Feb-17 00:30N 40°41' W 074°10'0 0.0
2018-Feb-17 00:00N 40°41' W 074°10'0 0.0
2018-Feb-16 23:29N 40°41' W 074°10'0 0.0
2018-Feb-16 23:00N 40°41' W 074°10'0 0.0
2018-Feb-16 22:30N 40°41' W 074°10'0 0.0
2018-Feb-16 22:00N 40°41' W 074°10'0 0.0
2018-Feb-16 21:30N 40°41' W 074°10'0 0.0
2018-Feb-16 21:00N 40°41' W 074°10'0 0.0
2018-Feb-16 20:30N 40°41' W 074°10'0 0.0
2018-Feb-16 20:00N 40°41' W 074°10'2 3.3
2018-Feb-16 19:30N 40°40' W 074°09'1 1.4
2018-Feb-16 19:00N 40°39' W 074°09'2 4.1
2018-Feb-16 18:30N 40°39' W 074°06'0 0.3
2018-Feb-16 18:00N 40°39' W 074°06'2 4.5
2018-Feb-16 17:30N 40°39' W 074°03'3 5.2
2018-Feb-16 17:00N 40°40' W 074°00'0 0.0
2018-Feb-16 16:30N 40°40' W 074°00'0 0.0
2018-Feb-16 16:00N 40°40' W 074°00'0 0.0
2018-Feb-16 15:30N 40°40' W 074°00'0 0.0
2018-Feb-16 15:00N 40°40' W 074°00'0 0.0
2018-Feb-16 14:30N 40°40' W 074°00'2 3.7
2018-Feb-16 14:00N 40°39' W 074°02'4 7.2
2018-Feb-16 13:30N 40°39' W 074°07'1 1.8
2018-Feb-16 13:00N 40°39' W 074°06'2 4.0
2018-Feb-16 12:30N 40°38' W 074°08'3 5.7
2018-Feb-16 12:00N 40°41' W 074°10'0 0.0
2018-Feb-16 11:29N 40°41' W 074°10'0 0.0
2018-Feb-16 11:00N 40°41' W 074°10'0 0.0
2018-Feb-16 10:30N 40°41' W 074°10'0 0.0
2018-Feb-16 09:59N 40°41' W 074°10'1 2.9
2018-Feb-16 09:30N 40°40' W 074°09'1 2.0
2018-Feb-16 09:00N 40°41' W 074°09'1 1.7
2018-Feb-16 08:30N 40°40' W 074°08'0 0.4
2018-Feb-16 08:00N 40°40' W 074°08'1 2.9
2018-Feb-16 07:30N 40°39' W 074°08'3 6.2
2018-Feb-16 07:00N 40°39' W 074°05'2 3.3
2018-Feb-16 06:30N 40°40' W 074°03'0 0.1
2018-Feb-16 06:00N 40°40' W 074°03'2 4.4
2018-Feb-16 05:30N 40°40' W 074°00'0 0.2
2018-Feb-16 05:00N 40°40' W 074°00'0 0.0
2018-Feb-16 04:30N 40°40' W 074°00'0 0.0
2018-Feb-16 04:00N 40°40' W 074°00'0 0.0
2018-Feb-16 03:30N 40°40' W 074°00'0 0.0
2018-Feb-16 03:00N 40°40' W 074°00'0 0.0
2018-Feb-16 02:30N 40°40' W 074°00'0 0.0
2018-Feb-16 02:00N 40°40' W 074°00'0 0.0
2018-Feb-16 01:30N 40°40' W 074°00'0 0.0
2018-Feb-16 01:00N 40°40' W 074°00'0 0.0
2018-Feb-16 00:30N 40°40' W 074°00'0 0.0
2018-Feb-16 00:00N 40°40' W 074°00'0 0.0
2018-Feb-15 23:30N 40°40' W 074°00'0 0.0
2018-Feb-15 23:00N 40°40' W 074°00'0 0.2
2018-Feb-15 22:30N 40°40' W 074°00'0 0.0
2018-Feb-15 22:00N 40°40' W 074°00'0 0.6
2018-Feb-15 21:30N 40°40' W 074°00'0 0.0
2018-Feb-15 21:00N 40°40' W 074°00'0 0.0
2018-Feb-15 20:30N 40°40' W 074°00'0 0.6
2018-Feb-15 20:00N 40°40' W 074°00'4 8.5
2018-Feb-15 19:30N 40°39' W 074°06'0 0.4
2018-Feb-15 19:00N 40°39' W 074°06'2 4.4
2018-Feb-15 18:30N 40°40' W 074°03'0 0.9
2018-Feb-15 18:00N 40°40' W 074°04'3 6.9
2018-Feb-15 17:30N 40°39' W 074°08'1 2.8
2018-Feb-15 16:59N 40°40' W 074°09'1 2.7
2018-Feb-15 16:30N 40°39' W 074°08'3 7.1
2018-Feb-15 16:00N 40°40' W 074°04'3 6.4
2018-Feb-15 15:30N 40°41' W 074°00'2 3.4
2018-Feb-15 15:00N 40°40' W 074°01'1 1.2
2018-Feb-15 14:30N 40°40' W 074°00'4 7.1
2018-Feb-15 14:00N 40°39' W 074°05'3 6.2
2018-Feb-15 13:30N 40°40' W 074°09'0 0.1
2018-Feb-15 13:00N 40°40' W 074°09'1 2.5
2018-Feb-15 12:30N 40°39' W 074°09'3 5.6
2018-Feb-15 12:00N 40°39' W 074°05'3 5.6
2018-Feb-15 11:30N 40°39' W 074°02'1 2.4
2018-Feb-15 11:00N 40°40' W 074°00'0 0.1
2018-Feb-15 10:30N 40°40' W 074°00'0 0.0
2018-Feb-15 10:00N 40°40' W 074°00'0 0.0
2018-Feb-15 09:30N 40°40' W 074°00'0 0.0
2018-Feb-15 09:00N 40°40' W 074°00'0 0.0
2018-Feb-15 08:30N 40°40' W 074°00'0 0.0
2018-Feb-15 08:00N 40°40' W 074°00'0 0.0
2018-Feb-15 07:30N 40°40' W 074°00'0 0.0
2018-Feb-15 07:00N 40°40' W 074°00'0 0.0
2018-Feb-15 06:30N 40°40' W 074°00'2 4.7
2018-Feb-15 06:00N 40°39' W 074°03'5 8.9
2018-Feb-15 05:28N 40°39' W 074°10'2 4.4
2018-Feb-15 05:00N 40°38' W 074°12'2 3.8
2018-Feb-15 04:30N 40°39' W 074°10'3 5.1
2018-Feb-15 04:00N 40°39' W 074°07'1 2.2
2018-Feb-15 03:30N 40°39' W 074°05'0 0.0
2018-Feb-15 03:00N 40°39' W 074°05'0 0.0
2018-Feb-15 02:30N 40°39' W 074°05'1 1.8
2018-Feb-15 02:00N 40°40' W 074°04'1 1.4
2018-Feb-15 01:30N 40°40' W 074°05'0 0.0
2018-Feb-15 01:00N 40°40' W 074°05'0 0.0
2018-Feb-15 00:30N 40°40' W 074°05'0 0.0
2018-Feb-15 00:00N 40°40' W 074°05'0 0.0
2018-Feb-14 23:30N 40°40' W 074°05'0 0.0
2018-Feb-14 23:00N 40°40' W 074°05'0 0.0
2018-Feb-14 22:30N 40°40' W 074°05'0 0.0
2018-Feb-14 22:00N 40°40' W 074°05'0 0.0
2018-Feb-14 21:30N 40°40' W 074°05'0 0.0
2018-Feb-14 21:00N 40°40' W 074°05'0 0.0
2018-Feb-14 20:30N 40°40' W 074°05'0 0.0
2018-Feb-14 19:59N 40°40' W 074°05'0 0.0
2018-Feb-14 19:30N 40°40' W 074°05'1 1.9
2018-Feb-14 19:00N 40°39' W 074°05'1 2.6
2018-Feb-14 18:30N 40°39' W 074°04'1 2.0
2018-Feb-14 18:00N 40°40' W 074°04'1 1.8
2018-Feb-14 17:30N 40°40' W 074°05'0 0.0
2018-Feb-14 17:00N 40°40' W 074°05'0 0.0
2018-Feb-14 16:30N 40°40' W 074°05'0 0.0
2018-Feb-14 16:00N 40°40' W 074°05'0 0.0
2018-Feb-14 15:30N 40°40' W 074°05'0 0.0
2018-Feb-14 15:00N 40°40' W 074°05'0 0.0
2018-Feb-14 14:30N 40°40' W 074°05'0 0.0
2018-Feb-14 14:00N 40°40' W 074°05'0 0.0
2018-Feb-14 13:30N 40°40' W 074°05'0 0.0
2018-Feb-14 13:00N 40°40' W 074°05'0 0.0
2018-Feb-14 12:30N 40°40' W 074°05'0 0.0
2018-Feb-14 12:00N 40°40' W 074°05'0 0.0
2018-Feb-14 11:30N 40°40' W 074°05'0 0.0
2018-Feb-14 11:00N 40°40' W 074°05'0 0.0
2018-Feb-14 10:30N 40°40' W 074°05'0 0.0
2018-Feb-14 10:00N 40°40' W 074°05'0 0.0
2018-Feb-14 09:30N 40°40' W 074°05'0 0.0
2018-Feb-14 09:00N 40°40' W 074°05'0 0.0
2018-Feb-14 08:30N 40°40' W 074°05'0 0.0
2018-Feb-14 08:00N 40°40' W 074°05'0 0.0
2018-Feb-14 07:30N 40°40' W 074°05'0 0.0
2018-Feb-14 07:00N 40°40' W 074°05'0 0.6
2018-Feb-14 06:30N 40°40' W 074°05'2 3.9
2018-Feb-14 06:00N 40°39' W 074°07'0 0.6
2018-Feb-14 05:29N 40°39' W 074°07'0 0.0
2018-Feb-14 04:59N 40°39' W 074°07'0 0.0
2018-Feb-14 04:30N 40°39' W 074°07'0 0.0
2018-Feb-14 03:58N 40°39' W 074°07'0 0.0
2018-Feb-14 03:30N 40°39' W 074°07'0 0.0
2018-Feb-14 03:00N 40°39' W 074°07'0 0.0
2018-Feb-14 02:30N 40°39' W 074°07'0 0.0
2018-Feb-14 02:00N 40°39' W 074°07'0 0.0
2018-Feb-14 01:30N 40°39' W 074°07'0 0.0
2018-Feb-14 01:00N 40°39' W 074°07'0 0.0
2018-Feb-14 00:30N 40°39' W 074°07'0 0.0
2018-Feb-13 23:59N 40°39' W 074°07'0 0.0
2018-Feb-13 23:27N 40°39' W 074°07'0 0.0
2018-Feb-13 23:00N 40°39' W 074°07'0 0.0
2018-Feb-13 22:30N 40°39' W 074°07'0 0.0
2018-Feb-13 22:00N 40°39' W 074°07'0 0.0
2018-Feb-13 21:30N 40°39' W 074°07'0 0.0
2018-Feb-13 21:00N 40°39' W 074°07'0 0.0
2018-Feb-13 20:30N 40°39' W 074°07'0 0.0
2018-Feb-13 20:00N 40°39' W 074°07'0 0.0
2018-Feb-13 19:30N 40°39' W 074°07'0 0.0
2018-Feb-13 19:00N 40°39' W 074°07'0 0.0
2018-Feb-13 18:28N 40°39' W 074°07'0 0.0
2018-Feb-13 18:00N 40°39' W 074°07'0 0.0
2018-Feb-13 17:30N 40°39' W 074°07'0 0.0
2018-Feb-13 17:00N 40°39' W 074°07'2 4.3
2018-Feb-13 16:30N 40°39' W 074°04'3 6.3
2018-Feb-13 16:00N 40°40' W 074°00'0 0.4
2018-Feb-13 15:30N 40°40' W 074°00'4 7.2
2018-Feb-13 15:00N 40°43' W 074°01'3 5.2
2018-Feb-13 14:29N 40°46' W 074°00'0 0.1
2018-Feb-13 14:00N 40°46' W 074°00'0 0.0
2018-Feb-13 13:30N 40°46' W 074°00'1 1.3
2018-Feb-13 13:00N 40°46' W 074°01'4 7.2
2018-Feb-13 12:30N 40°42' W 074°02'2 4.6
2018-Feb-13 12:00N 40°40' W 074°00'0 0.0
2018-Feb-13 11:30N 40°40' W 074°00'0 0.0
2018-Feb-13 11:00N 40°40' W 074°00'0 0.0
2018-Feb-13 10:30N 40°40' W 074°00'0 0.0
2018-Feb-13 10:00N 40°40' W 074°00'0 0.0
2018-Feb-13 09:30N 40°40' W 074°00'0 0.0
2018-Feb-13 09:00N 40°40' W 074°00'0 0.0
2018-Feb-13 08:30N 40°40' W 074°00'0 0.0
2018-Feb-13 08:00N 40°40' W 074°00'0 0.0
2018-Feb-13 07:30N 40°40' W 074°00'0 0.0
2018-Feb-13 07:00N 40°40' W 074°00'0 0.0
2018-Feb-13 06:30N 40°40' W 074°00'0 0.0
2018-Feb-13 06:00N 40°40' W 074°00'0 0.0
2018-Feb-13 05:30N 40°40' W 074°00'0 0.0
2018-Feb-13 05:00N 40°40' W 074°00'0 0.0
2018-Feb-13 04:31N 40°40' W 074°00'0 0.0
2018-Feb-13 04:00N 40°40' W 074°00'0 0.0
2018-Feb-13 03:30N 40°40' W 074°00'0 0.7
2018-Feb-13 03:00N 40°40' W 074°00'0 0.0
2018-Feb-13 02:30N 40°40' W 074°00'0 0.0
2018-Feb-13 02:00N 40°40' W 074°00'0 0.0
2018-Feb-13 01:30N 40°40' W 074°00'0 0.0
2018-Feb-13 01:00N 40°40' W 074°00'0 0.0
2018-Feb-13 00:30N 40°40' W 074°00'2 3.8
2018-Feb-13 00:00N 40°42' W 074°01'4 8.5
2018-Feb-12 23:30N 40°46' W 074°00'4 8.4
2018-Feb-12 23:00N 40°50' W 073°58'4 8.6
2018-Feb-12 22:30N 40°54' W 073°56'2 3.4
2018-Feb-12 21:54N 40°56' W 073°54'0 0.1
2018-Feb-12 21:29N 40°56' W 073°54'2 3.4
2018-Feb-12 21:00N 40°54' W 073°55'4 7.1
2018-Feb-12 20:30N 40°51' W 073°57'3 6.5
2018-Feb-12 20:00N 40°48' W 073°59'3 6.0
2018-Feb-12 19:30N 40°45' W 074°01'3 5.9
2018-Feb-12 19:00N 40°42' W 074°01'3 5.3
2018-Feb-12 18:30N 40°40' W 074°00'0 0.7
2018-Feb-12 18:00N 40°40' W 074°00'0 0.0
2018-Feb-12 17:30N 40°40' W 074°00'0 0.0
2018-Feb-12 17:00N 40°40' W 074°00'0 0.0
2018-Feb-12 16:30N 40°40' W 074°00'0 0.0
2018-Feb-12 16:00N 40°40' W 074°00'0 0.0
2018-Feb-12 15:30N 40°40' W 074°00'0 0.0
2018-Feb-12 15:00N 40°40' W 074°00'0 0.0
2018-Feb-12 14:30N 40°40' W 074°00'0 0.0
2018-Feb-12 14:00N 40°40' W 074°00'0 0.0
2018-Feb-12 13:30N 40°40' W 074°00'0 0.0
2018-Feb-12 13:00N 40°40' W 074°00'0 0.0
2018-Feb-12 12:30N 40°40' W 074°00'0 0.0
2018-Feb-12 12:00N 40°40' W 074°00'0 0.0
2018-Feb-12 11:30N 40°40' W 074°00'0 0.0
2018-Feb-12 11:00N 40°40' W 074°00'0 0.0
2018-Feb-12 10:30N 40°40' W 074°00'0 0.0
2018-Feb-12 10:00N 40°40' W 074°00'0 0.0
2018-Feb-12 09:30N 40°40' W 074°00'0 0.0
2018-Feb-12 09:00N 40°40' W 074°00'0 0.0
2018-Feb-12 08:30N 40°40' W 074°00'0 0.0
2018-Feb-12 08:00N 40°40' W 074°00'0 0.0
2018-Feb-12 07:30N 40°40' W 074°00'0 0.0
2018-Feb-12 07:00N 40°40' W 074°00'0 0.0
2018-Feb-12 06:30N 40°40' W 074°00'0 0.0
2018-Feb-12 06:00N 40°40' W 074°00'0 0.0
2018-Feb-12 05:30N 40°40' W 074°00'0 0.0
2018-Feb-12 05:00N 40°40' W 074°00'0 0.0
2018-Feb-12 04:30N 40°40' W 074°00'0 0.0
2018-Feb-12 04:00N 40°40' W 074°00'0 0.0
2018-Feb-12 03:29N 40°40' W 074°00'0 0.0
2018-Feb-12 03:00N 40°40' W 074°00'0 0.0
2018-Feb-12 02:30N 40°40' W 074°00'0 0.0
2018-Feb-12 02:00N 40°40' W 074°00'0 0.0
2018-Feb-12 01:30N 40°40' W 074°00'0 0.0
2018-Feb-12 01:00N 40°40' W 074°00'0 0.0
2018-Feb-12 00:30N 40°40' W 074°00'0 0.0
2018-Feb-12 00:00N 40°40' W 074°00'0 0.0
2018-Feb-11 23:30N 40°40' W 074°00'0 0.0
2018-Feb-11 23:00N 40°40' W 074°00'0 0.0
2018-Feb-11 22:30N 40°40' W 074°00'0 0.0
2018-Feb-11 22:00N 40°40' W 074°00'0 0.0
2018-Feb-11 21:30N 40°40' W 074°00'0 0.0
2018-Feb-11 21:00N 40°40' W 074°00'0 0.0
2018-Feb-11 20:30N 40°40' W 074°00'0 0.0
2018-Feb-11 20:00N 40°40' W 074°00'0 0.0
2018-Feb-11 19:30N 40°40' W 074°00'0 0.0
2018-Feb-11 19:00N 40°40' W 074°00'1 1.8
2018-Feb-11 18:30N 40°40' W 074°01'4 8.2
2018-Feb-11 18:00N 40°39' W 074°06'0 0.6
2018-Feb-11 17:30N 40°39' W 074°07'2 3.6
2018-Feb-11 17:00N 40°39' W 074°04'2 4.4
2018-Feb-11 16:30N 40°39' W 074°02'1 2.4
2018-Feb-11 16:00N 40°40' W 074°00'0 0.6
2018-Feb-11 15:30N 40°40' W 074°00'0 0.0
2018-Feb-11 15:00N 40°40' W 074°00'0 0.0
2018-Feb-11 14:30N 40°40' W 074°00'0 0.0
2018-Feb-11 14:00N 40°40' W 074°00'0 0.0
2018-Feb-11 13:30N 40°40' W 074°00'0 0.0
2018-Feb-11 13:00N 40°40' W 074°00'0 0.0
2018-Feb-11 12:30N 40°40' W 074°00'0 0.0
2018-Feb-11 12:00N 40°40' W 074°00'0 0.0
2018-Feb-11 11:30N 40°40' W 074°00'0 0.0
2018-Feb-11 11:00N 40°40' W 074°00'0 0.0
2018-Feb-11 10:30N 40°40' W 074°00'0 0.0
2018-Feb-11 10:00N 40°40' W 074°00'0 0.0
2018-Feb-11 09:30N 40°40' W 074°00'0 0.0
2018-Feb-11 09:00N 40°40' W 074°00'0 0.0
2018-Feb-11 08:30N 40°40' W 074°00'0 0.0
2018-Feb-11 08:00N 40°40' W 074°00'0 0.0
2018-Feb-11 07:30N 40°40' W 074°00'0 0.0
2018-Feb-11 07:00N 40°40' W 074°00'0 0.0
2018-Feb-11 06:30N 40°40' W 074°00'0 0.0
2018-Feb-11 06:00N 40°40' W 074°00'0 0.0
2018-Feb-11 05:30N 40°40' W 074°00'0 0.0
2018-Feb-11 05:00N 40°40' W 074°00'0 0.0
2018-Feb-11 04:30N 40°40' W 074°00'0 0.0
2018-Feb-11 04:00N 40°40' W 074°00'0 0.0
2018-Feb-11 03:30N 40°40' W 074°00'0 0.0
2018-Feb-11 03:00N 40°40' W 074°00'0 0.0
2018-Feb-11 02:30N 40°40' W 074°00'0 0.0
2018-Feb-11 02:00N 40°40' W 074°00'0 0.0
2018-Feb-11 01:30N 40°40' W 074°00'0 0.0
2018-Feb-11 01:00N 40°40' W 074°00'0 0.0
2018-Feb-11 00:30N 40°40' W 074°00'0 0.7
2018-Feb-11 00:00N 40°40' W 074°00'0 0.0
2018-Feb-10 23:30N 40°40' W 074°00'0 0.5
2018-Feb-10 23:00N 40°40' W 074°00'0 0.4
2018-Feb-10 22:30N 40°40' W 074°00'0 0.0
2018-Feb-10 22:00N 40°40' W 074°00'0 0.0
2018-Feb-10 21:30N 40°40' W 074°00'0 0.0
2018-Feb-10 20:59N 40°40' W 074°00'0 0.0
2018-Feb-10 20:30N 40°40' W 074°00'0 0.0
2018-Feb-10 20:00N 40°40' W 074°00'0 0.0
2018-Feb-10 19:30N 40°40' W 074°00'0 0.0
2018-Feb-10 19:00N 40°40' W 074°00'0 0.0
2018-Feb-10 18:30N 40°40' W 074°00'0 0.0
2018-Feb-10 18:00N 40°40' W 074°00'0 0.0
2018-Feb-10 17:30N 40°40' W 074°00'0 0.3
2018-Feb-10 17:00N 40°40' W 074°00'0 0.0
2018-Feb-10 16:30N 40°40' W 074°00'0 0.0
2018-Feb-10 16:00N 40°40' W 074°00'0 0.0
2018-Feb-10 15:30N 40°40' W 074°00'0 0.0
2018-Feb-10 15:00N 40°40' W 074°00'0 0.0
2018-Feb-10 14:30N 40°40' W 074°00'0 0.3
2018-Feb-10 14:00N 40°40' W 074°00'  

Dump ship's entire track history